sensor_id;sensor_type;location;lat;lon;timestamp;P1;P2;P0
68713;PMS7003;55690;51.566;19.198;2024-02-21T00:00:51;2;2;2
68713;PMS7003;55690;51.566;19.198;2024-02-21T00:04:59;3;3;3
68713;PMS7003;55690;51.566;19.198;2024-02-21T00:09:04;5;5;2
68713;PMS7003;55690;51.566;19.198;2024-02-21T00:13:10;3;2;1
68713;PMS7003;55690;51.566;19.198;2024-02-21T00:17:16;1;1;1
68713;PMS7003;55690;51.566;19.198;2024-02-21T00:21:22;2;2;2
68713;PMS7003;55690;51.566;19.198;2024-02-21T00:25:28;2;1;0
68713;PMS7003;55690;51.566;19.198;2024-02-21T00:29:35;1;0;0
68713;PMS7003;55690;51.566;19.198;2024-02-21T00:33:41;0;0;0
68713;PMS7003;55690;51.566;19.198;2024-02-21T00:37:47;1;1;0
68713;PMS7003;55690;51.566;19.198;2024-02-21T00:41:53;1;1;1
68713;PMS7003;55690;51.566;19.198;2024-02-21T00:45:59;1;1;0
68713;PMS7003;55690;51.566;19.198;2024-02-21T00:50:06;3;2;1
68713;PMS7003;55690;51.566;19.198;2024-02-21T00:54:12;2;0;0
68713;PMS7003;55690;51.566;19.198;2024-02-21T00:58:18;0;0;0
68713;PMS7003;55690;51.566;19.198;2024-02-21T01:02:24;3;3;2
68713;PMS7003;55690;51.566;19.198;2024-02-21T01:06:31;2;2;1
68713;PMS7003;55690;51.566;19.198;2024-02-21T01:10:36;0;0;0
68713;PMS7003;55690;51.566;19.198;2024-02-21T01:14:43;1;1;1
68713;PMS7003;55690;51.566;19.198;2024-02-21T01:18:49;1;1;1
68713;PMS7003;55690;51.566;19.198;2024-02-21T01:22:55;2;0;0
68713;PMS7003;55690;51.566;19.198;2024-02-21T01:27:01;0;0;0
68713;PMS7003;55690;51.566;19.198;2024-02-21T01:31:07;1;1;1
68713;PMS7003;55690;51.566;19.198;2024-02-21T01:35:13;0;0;0
68713;PMS7003;55690;51.566;19.198;2024-02-21T01:39:20;1;1;1
68713;PMS7003;55690;51.566;19.198;2024-02-21T01:43:26;5;1;0
68713;PMS7003;55690;51.566;19.198;2024-02-21T01:47:32;3;3;2
68713;PMS7003;55690;51.566;19.198;2024-02-21T01:51:38;1;1;1
68713;PMS7003;55690;51.566;19.198;2024-02-21T01:55:45;1;1;1
68713;PMS7003;55690;51.566;19.198;2024-02-21T01:59:51;0;0;0
68713;PMS7003;55690;51.566;19.198;2024-02-21T02:03:57;4;0;0
68713;PMS7003;55690;51.566;19.198;2024-02-21T02:08:03;2;2;1
68713;PMS7003;55690;51.566;19.198;2024-02-21T02:12:09;4;2;1
68713;PMS7003;55690;51.566;19.198;2024-02-21T02:16:15;0;0;0
68713;PMS7003;55690;51.566;19.198;2024-02-21T02:20:21;2;2;1
68713;PMS7003;55690;51.566;19.198;2024-02-21T02:24:28;1;1;1
68713;PMS7003;55690;51.566;19.198;2024-02-21T02:28:34;3;3;3
68713;PMS7003;55690;51.566;19.198;2024-02-21T02:32:43;2;0;0
68713;PMS7003;55690;51.566;19.198;2024-02-21T02:36:49;4;2;1
68713;PMS7003;55690;51.566;19.198;2024-02-21T02:40:52;3;0;0
68713;PMS7003;55690;51.566;19.198;2024-02-21T02:44:58;8;3;2
68713;PMS7003;55690;51.566;19.198;2024-02-21T02:49:05;14;7;6
68713;PMS7003;55690;51.566;19.198;2024-02-21T02:53:11;2;1;1
68713;PMS7003;55690;51.566;19.198;2024-02-21T02:57:17;3;3;2
68713;PMS7003;55690;51.566;19.198;2024-02-21T03:01:23;2;2;2
68713;PMS7003;55690;51.566;19.198;2024-02-21T03:05:29;1;1;1
68713;PMS7003;55690;51.566;19.198;2024-02-21T03:09:37;7;4;3
68713;PMS7003;55690;51.566;19.198;2024-02-21T03:13:42;2;0;0
68713;PMS7003;55690;51.566;19.198;2024-02-21T03:17:48;3;2;2
68713;PMS7003;55690;51.566;19.198;2024-02-21T03:21:55;6;2;2
68713;PMS7003;55690;51.566;19.198;2024-02-21T03:26:01;7;2;2
68713;PMS7003;55690;51.566;19.198;2024-02-21T03:30:07;1;1;1
68713;PMS7003;55690;51.566;19.198;2024-02-21T03:34:13;1;1;1
68713;PMS7003;55690;51.566;19.198;2024-02-21T03:38:19;3;1;1
68713;PMS7003;55690;51.566;19.198;2024-02-21T03:42:26;3;3;1
68713;PMS7003;55690;51.566;19.198;2024-02-21T03:46:32;11;3;3
68713;PMS7003;55690;51.566;19.198;2024-02-21T03:50:38;0;0;0
68713;PMS7003;55690;51.566;19.198;2024-02-21T03:54:44;9;4;3
68713;PMS7003;55690;51.566;19.198;2024-02-21T03:58:50;10;1;1
68713;PMS7003;55690;51.566;19.198;2024-02-21T04:02:56;0;0;0
68713;PMS7003;55690;51.566;19.198;2024-02-21T04:07:03;2;2;2
68713;PMS7003;55690;51.566;19.198;2024-02-21T04:11:09;2;2;1
68713;PMS7003;55690;51.566;19.198;2024-02-21T04:15:15;2;2;1
68713;PMS7003;55690;51.566;19.198;2024-02-21T04:19:21;0;0;0
68713;PMS7003;55690;51.566;19.198;2024-02-21T04:23:27;3;3;3
68713;PMS7003;55690;51.566;19.198;2024-02-21T04:27:33;9;4;2
68713;PMS7003;55690;51.566;19.198;2024-02-21T04:31:40;1;1;0
68713;PMS7003;55690;51.566;19.198;2024-02-21T04:35:46;3;3;2
68713;PMS7003;55690;51.566;19.198;2024-02-21T04:39:52;3;3;2
68713;PMS7003;55690;51.566;19.198;2024-02-21T04:43:58;1;1;0
68713;PMS7003;55690;51.566;19.198;2024-02-21T04:48:04;3;3;3
68713;PMS7003;55690;51.566;19.198;2024-02-21T04:52:11;2;2;2
68713;PMS7003;55690;51.566;19.198;2024-02-21T04:56:17;5;3;2
68713;PMS7003;55690;51.566;19.198;2024-02-21T05:00:23;2;1;1
68713;PMS7003;55690;51.566;19.198;2024-02-21T05:04:29;6;4;4
68713;PMS7003;55690;51.566;19.198;2024-02-21T05:08:35;5;5;4
68713;PMS7003;55690;51.566;19.198;2024-02-21T05:12:41;2;2;1
68713;PMS7003;55690;51.566;19.198;2024-02-21T05:16:48;1;1;1
68713;PMS7003;55690;51.566;19.198;2024-02-21T05:20:54;4;1;1
68713;PMS7003;55690;51.566;19.198;2024-02-21T05:25:00;1;0;0
68713;PMS7003;55690;51.566;19.198;2024-02-21T05:29:06;6;3;2
68713;PMS7003;55690;51.566;19.198;2024-02-21T05:33:12;3;3;3
68713;PMS7003;55690;51.566;19.198;2024-02-21T05:37:21;5;2;2
68713;PMS7003;55690;51.566;19.198;2024-02-21T05:41:25;13;2;1
68713;PMS7003;55690;51.566;19.198;2024-02-21T05:45:31;3;2;1
68713;PMS7003;55690;51.566;19.198;2024-02-21T05:49:37;5;2;1
68713;PMS7003;55690;51.566;19.198;2024-02-21T05:53:43;3;2;1
68713;PMS7003;55690;51.566;19.198;2024-02-21T05:57:49;2;2;1
68713;PMS7003;55690;51.566;19.198;2024-02-21T06:01:56;5;3;2
68713;PMS7003;55690;51.566;19.198;2024-02-21T06:06:05;7;3;3
68713;PMS7003;55690;51.566;19.198;2024-02-21T06:10:09;6;6;6
68713;PMS7003;55690;51.566;19.198;2024-02-21T06:14:14;10;3;2
68713;PMS7003;55690;51.566;19.198;2024-02-21T06:18:20;5;3;2
68713;PMS7003;55690;51.566;19.198;2024-02-21T06:22:26;7;3;3
68713;PMS7003;55690;51.566;19.198;2024-02-21T06:26:33;2;2;2
68713;PMS7003;55690;51.566;19.198;2024-02-21T06:30:39;5;3;2
68713;PMS7003;55690;51.566;19.198;2024-02-21T06:34:45;3;3;2
68713;PMS7003;55690;51.566;19.198;2024-02-21T06:38:51;8;7;5
68713;PMS7003;55690;51.566;19.198;2024-02-21T06:42:57;6;4;2
68713;PMS7003;55690;51.566;19.198;2024-02-21T06:47:04;2;2;1
68713;PMS7003;55690;51.566;19.198;2024-02-21T06:51:10;3;3;1
68713;PMS7003;55690;51.566;19.198;2024-02-21T06:55:16;6;3;2
68713;PMS7003;55690;51.566;19.198;2024-02-21T06:59:22;1;1;1
68713;PMS7003;55690;51.566;19.198;2024-02-21T07:03:28;4;4;2
68713;PMS7003;55690;51.566;19.198;2024-02-21T07:07:34;6;3;3
68713;PMS7003;55690;51.566;19.198;2024-02-21T07:11:41;5;2;2
68713;PMS7003;55690;51.566;19.198;2024-02-21T07:15:47;8;2;1
68713;PMS7003;55690;51.566;19.198;2024-02-21T07:19:53;2;2;1
68713;PMS7003;55690;51.566;19.198;2024-02-21T07:23:59;2;2;1
68713;PMS7003;55690;51.566;19.198;2024-02-21T07:28:05;4;1;1
68713;PMS7003;55690;51.566;19.198;2024-02-21T07:32:12;5;4;3
68713;PMS7003;55690;51.566;19.198;2024-02-21T07:36:25;2;2;1
68713;PMS7003;55690;51.566;19.198;2024-02-21T07:40:33;5;2;1
68713;PMS7003;55690;51.566;19.198;2024-02-21T07:44:35;2;2;2
68713;PMS7003;55690;51.566;19.198;2024-02-21T07:48:37;4;4;3
68713;PMS7003;55690;51.566;19.198;2024-02-21T07:52:42;2;2;1
68713;PMS7003;55690;51.566;19.198;2024-02-21T07:56:48;1;1;0
68713;PMS7003;55690;51.566;19.198;2024-02-21T08:00:55;6;3;3
68713;PMS7003;55690;51.566;19.198;2024-02-21T08:05:01;4;3;3
68713;PMS7003;55690;51.566;19.198;2024-02-21T08:09:07;17;0;0
68713;PMS7003;55690;51.566;19.198;2024-02-21T08:13:14;3;3;2
68713;PMS7003;55690;51.566;19.198;2024-02-21T08:17:21;3;1;0
68713;PMS7003;55690;51.566;19.198;2024-02-21T08:21:26;0;0;0
68713;PMS7003;55690;51.566;19.198;2024-02-21T08:25:32;3;3;3
68713;PMS7003;55690;51.566;19.198;2024-02-21T08:29:38;6;2;2
68713;PMS7003;55690;51.566;19.198;2024-02-21T08:33:44;1;1;1
68713;PMS7003;55690;51.566;19.198;2024-02-21T08:37:50;2;2;2
68713;PMS7003;55690;51.566;19.198;2024-02-21T08:41:56;6;2;1
68713;PMS7003;55690;51.566;19.198;2024-02-21T08:46:03;3;2;1
68713;PMS7003;55690;51.566;19.198;2024-02-21T08:50:09;3;3;3
68713;PMS7003;55690;51.566;19.198;2024-02-21T08:54:15;8;5;3
68713;PMS7003;55690;51.566;19.198;2024-02-21T08:58:21;8;2;2
68713;PMS7003;55690;51.566;19.198;2024-02-21T09:02:27;5;5;3
68713;PMS7003;55690;51.566;19.198;2024-02-21T09:06:34;2;2;1
68713;PMS7003;55690;51.566;19.198;2024-02-21T09:10:42;4;4;2
68713;PMS7003;55690;51.566;19.198;2024-02-21T09:14:46;3;3;2
68713;PMS7003;55690;51.566;19.198;2024-02-21T09:18:52;12;3;2
68713;PMS7003;55690;51.566;19.198;2024-02-21T09:22:58;13;2;1
68713;PMS7003;55690;51.566;19.198;2024-02-21T09:27:04;9;2;1
68713;PMS7003;55690;51.566;19.198;2024-02-21T09:31:11;5;2;2
68713;PMS7003;55690;51.566;19.198;2024-02-21T09:35:17;2;2;1
68713;PMS7003;55690;51.566;19.198;2024-02-21T09:39:23;13;5;3
68713;PMS7003;55690;51.566;19.198;2024-02-21T09:43:29;7;3;2
68713;PMS7003;55690;51.566;19.198;2024-02-21T09:51:51;10;10;7
68713;PMS7003;55690;51.566;19.198;2024-02-21T09:55:55;1;1;1
68713;PMS7003;55690;51.566;19.198;2024-02-21T09:59:57;10;4;2
68713;PMS7003;55690;51.566;19.198;2024-02-21T10:04:00;3;3;2
68713;PMS7003;55690;51.566;19.198;2024-02-21T10:08:06;3;3;3
68713;PMS7003;55690;51.566;19.198;2024-02-21T10:12:13;2;2;1
68713;PMS7003;55690;51.566;19.198;2024-02-21T10:16:20;9;2;2
68713;PMS7003;55690;51.566;19.198;2024-02-21T10:20:25;5;1;1
68713;PMS7003;55690;51.566;19.198;2024-02-21T10:24:34;4;4;2
68713;PMS7003;55690;51.566;19.198;2024-02-21T10:28:41;7;7;3
68713;PMS7003;55690;51.566;19.198;2024-02-21T10:37:05;10;3;3
68713;PMS7003;55690;51.566;19.198;2024-02-21T10:41:05;2;2;2
68713;PMS7003;55690;51.566;19.198;2024-02-21T10:45:07;4;4;3
68713;PMS7003;55690;51.566;19.198;2024-02-21T10:49:12;4;4;3
68713;PMS7003;55690;51.566;19.198;2024-02-21T10:57:39;3;3;2
68713;PMS7003;55690;51.566;19.198;2024-02-21T11:01:41;9;4;3
68713;PMS7003;55690;51.566;19.198;2024-02-21T11:05:43;1;1;1
68713;PMS7003;55690;51.566;19.198;2024-02-21T11:18:10;10;3;3
68713;PMS7003;55690;51.566;19.198;2024-02-21T11:22:15;5;3;2
68713;PMS7003;55690;51.566;19.198;2024-02-21T11:26:27;4;2;2
68713;PMS7003;55690;51.566;19.198;2024-02-21T11:30:30;7;2;1
68713;PMS7003;55690;51.566;19.198;2024-02-21T11:34:33;2;2;2
68713;PMS7003;55690;51.566;19.198;2024-02-21T11:38:35;2;2;2
68713;PMS7003;55690;51.566;19.198;2024-02-21T11:42:37;4;4;4
68713;PMS7003;55690;51.566;19.198;2024-02-21T11:46:39;8;5;3
68713;PMS7003;55690;51.566;19.198;2024-02-21T11:50:52;10;5;4
68713;PMS7003;55690;51.566;19.198;2024-02-21T11:54:56;6;3;2
68713;PMS7003;55690;51.566;19.198;2024-02-21T11:59:05;5;3;3
68713;PMS7003;55690;51.566;19.198;2024-02-21T12:03:07;2;2;2
68713;PMS7003;55690;51.566;19.198;2024-02-21T12:07:09;4;4;4
68713;PMS7003;55690;51.566;19.198;2024-02-21T12:15:23;4;4;2
68713;PMS7003;55690;51.566;19.198;2024-02-21T12:19:30;9;7;4
68713;PMS7003;55690;51.566;19.198;2024-02-21T12:23:35;2;2;2
68713;PMS7003;55690;51.566;19.198;2024-02-21T12:27:39;7;2;2
68713;PMS7003;55690;51.566;19.198;2024-02-21T12:31:45;4;4;3
68713;PMS7003;55690;51.566;19.198;2024-02-21T12:35:51;3;3;3
68713;PMS7003;55690;51.566;19.198;2024-02-21T12:39:57;6;6;4
68713;PMS7003;55690;51.566;19.198;2024-02-21T12:44:06;2;2;2
68713;PMS7003;55690;51.566;19.198;2024-02-21T12:48:10;7;5;2
68713;PMS7003;55690;51.566;19.198;2024-02-21T12:52:16;1;1;1
68713;PMS7003;55690;51.566;19.198;2024-02-21T12:56:22;3;1;1
68713;PMS7003;55690;51.566;19.198;2024-02-21T13:00:28;2;2;2
68713;PMS7003;55690;51.566;19.198;2024-02-21T13:04:34;2;2;1
68713;PMS7003;55690;51.566;19.198;2024-02-21T13:08:40;4;1;0
68713;PMS7003;55690;51.566;19.198;2024-02-21T13:12:47;7;3;2
68713;PMS7003;55690;51.566;19.198;2024-02-21T13:16:53;2;2;2
68713;PMS7003;55690;51.566;19.198;2024-02-21T13:20:59;5;2;1
68713;PMS7003;55690;51.566;19.198;2024-02-21T13:25:05;3;3;3
68713;PMS7003;55690;51.566;19.198;2024-02-21T13:29:11;5;3;3
68713;PMS7003;55690;51.566;19.198;2024-02-21T13:33:17;4;2;1
68713;PMS7003;55690;51.566;19.198;2024-02-21T13:37:24;3;2;2
68713;PMS7003;55690;51.566;19.198;2024-02-21T13:41:30;4;3;1
68713;PMS7003;55690;51.566;19.198;2024-02-21T13:45:36;4;4;4
68713;PMS7003;55690;51.566;19.198;2024-02-21T13:49:42;1;1;1
68713;PMS7003;55690;51.566;19.198;2024-02-21T13:53:48;3;3;3
68713;PMS7003;55690;51.566;19.198;2024-02-21T13:57:55;7;4;3
68713;PMS7003;55690;51.566;19.198;2024-02-21T14:02:01;1;1;0
68713;PMS7003;55690;51.566;19.198;2024-02-21T14:06:07;1;1;1
68713;PMS7003;55690;51.566;19.198;2024-02-21T14:10:13;7;3;2
68713;PMS7003;55690;51.566;19.198;2024-02-21T14:14:19;1;1;1
68713;PMS7003;55690;51.566;19.198;2024-02-21T14:18:25;1;1;1
68713;PMS7003;55690;51.566;19.198;2024-02-21T14:22:32;4;1;1
68713;PMS7003;55690;51.566;19.198;2024-02-21T14:26:38;2;1;0
68713;PMS7003;55690;51.566;19.198;2024-02-21T14:30:44;5;2;2
68713;PMS7003;55690;51.566;19.198;2024-02-21T14:34:50;3;1;0
68713;PMS7003;55690;51.566;19.198;2024-02-21T14:38:56;10;3;2
68713;PMS7003;55690;51.566;19.198;2024-02-21T14:43:03;1;1;1
68713;PMS7003;55690;51.566;19.198;2024-02-21T14:47:09;6;5;2
68713;PMS7003;55690;51.566;19.198;2024-02-21T14:51:15;1;1;1
68713;PMS7003;55690;51.566;19.198;2024-02-21T14:55:21;4;3;3
68713;PMS7003;55690;51.566;19.198;2024-02-21T14:59:27;12;4;3
68713;PMS7003;55690;51.566;19.198;2024-02-21T15:03:33;9;4;4
68713;PMS7003;55690;51.566;19.198;2024-02-21T15:07:39;9;3;3
68713;PMS7003;55690;51.566;19.198;2024-02-21T15:11:46;4;1;1
68713;PMS7003;55690;51.566;19.198;2024-02-21T15:15:52;10;3;3
68713;PMS7003;55690;51.566;19.198;2024-02-21T15:19:58;2;2;1
68713;PMS7003;55690;51.566;19.198;2024-02-21T15:24:04;9;3;3
68713;PMS7003;55690;51.566;19.198;2024-02-21T15:28:10;7;7;6
68713;PMS7003;55690;51.566;19.198;2024-02-21T15:32:17;8;5;4
68713;PMS7003;55690;51.566;19.198;2024-02-21T15:36:23;5;5;5
68713;PMS7003;55690;51.566;19.198;2024-02-21T15:40:29;8;6;4
68713;PMS7003;55690;51.566;19.198;2024-02-21T15:44:35;4;4;3
68713;PMS7003;55690;51.566;19.198;2024-02-21T15:48:41;4;4;3
68713;PMS7003;55690;51.566;19.198;2024-02-21T15:52:47;9;6;4
68713;PMS7003;55690;51.566;19.198;2024-02-21T15:56:54;20;6;4
68713;PMS7003;55690;51.566;19.198;2024-02-21T16:01:00;6;6;4
68713;PMS7003;55690;51.566;19.198;2024-02-21T16:05:09;10;6;3
68713;PMS7003;55690;51.566;19.198;2024-02-21T16:09:12;5;3;2
68713;PMS7003;55690;51.566;19.198;2024-02-21T16:13:18;4;3;3
68713;PMS7003;55690;51.566;19.198;2024-02-21T16:17:24;9;7;5
68713;PMS7003;55690;51.566;19.198;2024-02-21T16:21:31;5;3;3
68713;PMS7003;55690;51.566;19.198;2024-02-21T16:25:37;4;2;2
68713;PMS7003;55690;51.566;19.198;2024-02-21T16:29:43;11;5;3
68713;PMS7003;55690;51.566;19.198;2024-02-21T16:33:49;2;2;1
68713;PMS7003;55690;51.566;19.198;2024-02-21T16:37:55;15;4;4
68713;PMS7003;55690;51.566;19.198;2024-02-21T16:42:02;4;3;3
68713;PMS7003;55690;51.566;19.198;2024-02-21T16:46:08;3;3;2
68713;PMS7003;55690;51.566;19.198;2024-02-21T16:50:14;6;4;3
68713;PMS7003;55690;51.566;19.198;2024-02-21T16:54:21;10;3;2
68713;PMS7003;55690;51.566;19.198;2024-02-21T16:58:26;5;1;1
68713;PMS7003;55690;51.566;19.198;2024-02-21T17:02:32;11;8;6
68713;PMS7003;55690;51.566;19.198;2024-02-21T17:06:39;3;3;1
68713;PMS7003;55690;51.566;19.198;2024-02-21T17:10:45;2;2;1
68713;PMS7003;55690;51.566;19.198;2024-02-21T17:14:51;5;4;3
68713;PMS7003;55690;51.566;19.198;2024-02-21T17:18:57;8;7;5
68713;PMS7003;55690;51.566;19.198;2024-02-21T17:23:03;1;1;1
68713;PMS7003;55690;51.566;19.198;2024-02-21T17:27:10;4;3;2
68713;PMS7003;55690;51.566;19.198;2024-02-21T17:31:16;4;4;3
68713;PMS7003;55690;51.566;19.198;2024-02-21T17:35:22;4;3;2
68713;PMS7003;55690;51.566;19.198;2024-02-21T17:39:28;4;4;4
68713;PMS7003;55690;51.566;19.198;2024-02-21T17:43:34;2;2;2
68713;PMS7003;55690;51.566;19.198;2024-02-21T17:47:40;3;3;3
68713;PMS7003;55690;51.566;19.198;2024-02-21T17:51:46;12;5;5
68713;PMS7003;55690;51.566;19.198;2024-02-21T17:55:53;8;3;2
68713;PMS7003;55690;51.566;19.198;2024-02-21T17:59:59;2;2;2
68713;PMS7003;55690;51.566;19.198;2024-02-21T18:04:05;1;1;1
68713;PMS7003;55690;51.566;19.198;2024-02-21T18:08:11;17;5;2
68713;PMS7003;55690;51.566;19.198;2024-02-21T18:12:17;7;7;6
68713;PMS7003;55690;51.566;19.198;2024-02-21T18:16:24;11;5;3
68713;PMS7003;55690;51.566;19.198;2024-02-21T18:20:30;9;3;3
68713;PMS7003;55690;51.566;19.198;2024-02-21T18:24:36;4;2;1
68713;PMS7003;55690;51.566;19.198;2024-02-21T18:28:43;4;3;2
68713;PMS7003;55690;51.566;19.198;2024-02-21T18:32:48;7;6;5
68713;PMS7003;55690;51.566;19.198;2024-02-21T18:36:54;8;3;3
68713;PMS7003;55690;51.566;19.198;2024-02-21T18:41:01;5;5;5
68713;PMS7003;55690;51.566;19.198;2024-02-21T18:45:07;6;3;2
68713;PMS7003;55690;51.566;19.198;2024-02-21T18:49:13;2;2;2
68713;PMS7003;55690;51.566;19.198;2024-02-21T18:53:19;5;5;4
68713;PMS7003;55690;51.566;19.198;2024-02-21T18:57:25;8;8;5
68713;PMS7003;55690;51.566;19.198;2024-02-21T19:01:31;10;5;4
68713;PMS7003;55690;51.566;19.198;2024-02-21T19:05:38;6;4;3
68713;PMS7003;55690;51.566;19.198;2024-02-21T19:09:44;6;5;2
68713;PMS7003;55690;51.566;19.198;2024-02-21T19:13:50;6;5;3
68713;PMS7003;55690;51.566;19.198;2024-02-21T19:17:56;7;4;2
68713;PMS7003;55690;51.566;19.198;2024-02-21T19:22:03;6;6;4
68713;PMS7003;55690;51.566;19.198;2024-02-21T19:26:09;9;5;4
68713;PMS7003;55690;51.566;19.198;2024-02-21T19:30:16;12;4;2
68713;PMS7003;55690;51.566;19.198;2024-02-21T19:34:22;7;5;2
68713;PMS7003;55690;51.566;19.198;2024-02-21T19:38:28;9;6;6
68713;PMS7003;55690;51.566;19.198;2024-02-21T19:42:34;2;2;2
68713;PMS7003;55690;51.566;19.198;2024-02-21T19:46:40;3;3;2
68713;PMS7003;55690;51.566;19.198;2024-02-21T19:50:46;11;4;3
68713;PMS7003;55690;51.566;19.198;2024-02-21T19:54:52;4;3;2
68713;PMS7003;55690;51.566;19.198;2024-02-21T19:58:58;8;7;4
68713;PMS7003;55690;51.566;19.198;2024-02-21T20:03:04;12;12;7
68713;PMS7003;55690;51.566;19.198;2024-02-21T20:07:10;7;7;4
68713;PMS7003;55690;51.566;19.198;2024-02-21T20:11:18;4;4;4
68713;PMS7003;55690;51.566;19.198;2024-02-21T20:15:23;4;0;0
68713;PMS7003;55690;51.566;19.198;2024-02-21T20:19:29;6;4;3
68713;PMS7003;55690;51.566;19.198;2024-02-21T20:23:35;8;8;5
68713;PMS7003;55690;51.566;19.198;2024-02-21T20:27:41;20;7;5
68713;PMS7003;55690;51.566;19.198;2024-02-21T20:31:48;9;5;3
68713;PMS7003;55690;51.566;19.198;2024-02-21T20:35:54;4;4;2
68713;PMS7003;55690;51.566;19.198;2024-02-21T20:40:00;3;2;2
68713;PMS7003;55690;51.566;19.198;2024-02-21T20:44:09;9;7;5
68713;PMS7003;55690;51.566;19.198;2024-02-21T20:48:12;7;5;4
68713;PMS7003;55690;51.566;19.198;2024-02-21T20:52:19;6;4;4
68713;PMS7003;55690;51.566;19.198;2024-02-21T20:56:25;3;3;3
68713;PMS7003;55690;51.566;19.198;2024-02-21T21:00:31;6;6;2
68713;PMS7003;55690;51.566;19.198;2024-02-21T21:04:37;14;11;9
68713;PMS7003;55690;51.566;19.198;2024-02-21T21:08:43;11;7;5
68713;PMS7003;55690;51.566;19.198;2024-02-21T21:12:49;3;3;3
68713;PMS7003;55690;51.566;19.198;2024-02-21T21:16:55;12;10;8
68713;PMS7003;55690;51.566;19.198;2024-02-21T21:21:02;18;6;4
68713;PMS7003;55690;51.566;19.198;2024-02-21T21:25:08;12;9;8
68713;PMS7003;55690;51.566;19.198;2024-02-21T21:29:14;6;6;5
68713;PMS7003;55690;51.566;19.198;2024-02-21T21:33:21;19;6;5
68713;PMS7003;55690;51.566;19.198;2024-02-21T21:37:26;18;9;6
68713;PMS7003;55690;51.566;19.198;2024-02-21T21:41:33;12;9;5
68713;PMS7003;55690;51.566;19.198;2024-02-21T21:45:39;11;10;9
68713;PMS7003;55690;51.566;19.198;2024-02-21T21:49:45;35;22;17
68713;PMS7003;55690;51.566;19.198;2024-02-21T21:53:51;8;8;7
68713;PMS7003;55690;51.566;19.198;2024-02-21T21:57:57;6;6;3
68713;PMS7003;55690;51.566;19.198;2024-02-21T22:02:03;7;7;5
68713;PMS7003;55690;51.566;19.198;2024-02-21T22:06:10;15;5;4
68713;PMS7003;55690;51.566;19.198;2024-02-21T22:10:16;18;13;12
68713;PMS7003;55690;51.566;19.198;2024-02-21T22:14:22;10;8;4
68713;PMS7003;55690;51.566;19.198;2024-02-21T22:18:28;9;5;4
68713;PMS7003;55690;51.566;19.198;2024-02-21T22:22:34;11;8;6
68713;PMS7003;55690;51.566;19.198;2024-02-21T22:26:40;7;7;5
68713;PMS7003;55690;51.566;19.198;2024-02-21T22:30:47;21;15;12
68713;PMS7003;55690;51.566;19.198;2024-02-21T22:34:53;16;13;10
68713;PMS7003;55690;51.566;19.198;2024-02-21T22:38:59;16;11;7
68713;PMS7003;55690;51.566;19.198;2024-02-21T22:43:05;11;5;4
68713;PMS7003;55690;51.566;19.198;2024-02-21T22:47:11;22;8;6
68713;PMS7003;55690;51.566;19.198;2024-02-21T22:51:17;18;12;10
68713;PMS7003;55690;51.566;19.198;2024-02-21T22:55:24;16;15;10
68713;PMS7003;55690;51.566;19.198;2024-02-21T22:59:30;18;9;8
68713;PMS7003;55690;51.566;19.198;2024-02-21T23:03:36;14;12;7
68713;PMS7003;55690;51.566;19.198;2024-02-21T23:07:42;7;5;4
68713;PMS7003;55690;51.566;19.198;2024-02-21T23:11:48;15;9;8
68713;PMS7003;55690;51.566;19.198;2024-02-21T23:15:55;24;16;14
68713;PMS7003;55690;51.566;19.198;2024-02-21T23:20:01;13;10;7
68713;PMS7003;55690;51.566;19.198;2024-02-21T23:24:08;17;9;7
68713;PMS7003;55690;51.566;19.198;2024-02-21T23:28:13;11;8;5
68713;PMS7003;55690;51.566;19.198;2024-02-21T23:32:19;12;8;6
68713;PMS7003;55690;51.566;19.198;2024-02-21T23:36:26;19;11;8
68713;PMS7003;55690;51.566;19.198;2024-02-21T23:40:32;14;9;8
68713;PMS7003;55690;51.566;19.198;2024-02-21T23:44:38;11;8;6
68713;PMS7003;55690;51.566;19.198;2024-02-21T23:48:44;11;9;7
68713;PMS7003;55690;51.566;19.198;2024-02-21T23:52:50;12;8;6
68713;PMS7003;55690;51.566;19.198;2024-02-21T23:56:56;14;7;6
